sensor_id;sensor_type;location;lat;lon;timestamp;P1;durP1;ratioP1;P2;durP2;ratioP2
10313;SDS011;5202;49.138;10.090;2023-09-19T00:03:50;2.35;;;1.20;;
10313;SDS011;5202;49.138;10.090;2023-09-19T00:06:19;0.93;;;0.85;;
10313;SDS011;5202;49.138;10.090;2023-09-19T00:08:50;1.50;;;1.08;;
10313;SDS011;5202;49.138;10.090;2023-09-19T00:11:18;1.77;;;1.02;;
10313;SDS011;5202;49.138;10.090;2023-09-19T00:13:48;1.02;;;0.90;;
10313;SDS011;5202;49.138;10.090;2023-09-19T00:16:17;1.33;;;1.02;;
10313;SDS011;5202;49.138;10.090;2023-09-19T00:18:46;2.65;;;0.90;;
10313;SDS011;5202;49.138;10.090;2023-09-19T00:21:15;1.60;;;1.42;;
10313;SDS011;5202;49.138;10.090;2023-09-19T00:23:45;1.83;;;1.10;;
10313;SDS011;5202;49.138;10.090;2023-09-19T00:26:14;1.52;;;1.05;;
10313;SDS011;5202;49.138;10.090;2023-09-19T00:28:48;1.40;;;1.10;;
10313;SDS011;5202;49.138;10.090;2023-09-19T00:31:19;1.60;;;1.17;;
10313;SDS011;5202;49.138;10.090;2023-09-19T00:33:52;5.72;;;1.20;;
10313;SDS011;5202;49.138;10.090;2023-09-19T00:36:24;1.77;;;1.17;;
10313;SDS011;5202;49.138;10.090;2023-09-19T00:38:53;2.88;;;1.33;;
10313;SDS011;5202;49.138;10.090;2023-09-19T00:41:21;0.90;;;0.90;;
10313;SDS011;5202;49.138;10.090;2023-09-19T00:43:52;2.35;;;1.17;;
10313;SDS011;5202;49.138;10.090;2023-09-19T00:46:21;1.52;;;1.20;;
10313;SDS011;5202;49.138;10.090;2023-09-19T00:48:49;3.60;;;1.20;;
10313;SDS011;5202;49.138;10.090;2023-09-19T00:51:18;1.35;;;1.25;;
10313;SDS011;5202;49.138;10.090;2023-09-19T00:53:49;3.33;;;1.20;;
10313;SDS011;5202;49.138;10.090;2023-09-19T00:56:18;2.17;;;1.20;;
10313;SDS011;5202;49.138;10.090;2023-09-19T00:58:47;3.10;;;1.23;;
10313;SDS011;5202;49.138;10.090;2023-09-19T01:01:17;1.52;;;0.85;;
10313;SDS011;5202;49.138;10.090;2023-09-19T01:03:46;0.90;;;0.90;;
10313;SDS011;5202;49.138;10.090;2023-09-19T01:06:15;2.22;;;1.10;;
10313;SDS011;5202;49.138;10.090;2023-09-19T01:08:44;1.85;;;1.27;;
10313;SDS011;5202;49.138;10.090;2023-09-19T01:11:13;1.80;;;1.35;;
10313;SDS011;5202;49.138;10.090;2023-09-19T01:13:54;2.05;;;1.10;;
10313;SDS011;5202;49.138;10.090;2023-09-19T01:16:32;2.25;;;1.30;;
10313;SDS011;5202;49.138;10.090;2023-09-19T01:19:21;1.92;;;1.30;;
10313;SDS011;5202;49.138;10.090;2023-09-19T01:22:21;1.70;;;1.17;;
10313;SDS011;5202;49.138;10.090;2023-09-19T01:28:33;2.75;;;1.30;;
10313;SDS011;5202;49.138;10.090;2023-09-19T01:31:23;3.65;;;1.25;;
10313;SDS011;5202;49.138;10.090;2023-09-19T01:33:57;2.05;;;1.38;;
10313;SDS011;5202;49.138;10.090;2023-09-19T01:36:27;4.47;;;1.40;;
10313;SDS011;5202;49.138;10.090;2023-09-19T01:38:57;3.08;;;1.30;;
10313;SDS011;5202;49.138;10.090;2023-09-19T01:41:41;1.20;;;1.10;;
10313;SDS011;5202;49.138;10.090;2023-09-19T01:44:25;2.60;;;1.20;;
10313;SDS011;5202;49.138;10.090;2023-09-19T01:47:18;4.32;;;1.10;;
10313;SDS011;5202;49.138;10.090;2023-09-19T01:50:02;2.03;;;1.10;;
10313;SDS011;5202;49.138;10.090;2023-09-19T01:52:43;3.65;;;1.40;;
10313;SDS011;5202;49.138;10.090;2023-09-19T01:55:16;2.35;;;1.40;;
10313;SDS011;5202;49.138;10.090;2023-09-19T01:57:48;1.40;;;1.30;;
10313;SDS011;5202;49.138;10.090;2023-09-19T02:00:22;1.83;;;1.00;;
10313;SDS011;5202;49.138;10.090;2023-09-19T02:02:53;1.38;;;0.90;;
10313;SDS011;5202;49.138;10.090;2023-09-19T02:05:25;2.22;;;1.25;;
10313;SDS011;5202;49.138;10.090;2023-09-19T02:07:54;1.52;;;1.17;;
10313;SDS011;5202;49.138;10.090;2023-09-19T02:10:25;3.13;;;1.30;;
10313;SDS011;5202;49.138;10.090;2023-09-19T02:12:53;1.10;;;1.00;;
10313;SDS011;5202;49.138;10.090;2023-09-19T02:15:23;2.30;;;1.08;;
10313;SDS011;5202;49.138;10.090;2023-09-19T02:17:51;2.05;;;1.23;;
10313;SDS011;5202;49.138;10.090;2023-09-19T02:20:24;1.25;;;1.15;;
10313;SDS011;5202;49.138;10.090;2023-09-19T02:22:53;1.80;;;0.93;;
10313;SDS011;5202;49.138;10.090;2023-09-19T02:25:21;2.25;;;1.25;;
10313;SDS011;5202;49.138;10.090;2023-09-19T02:27:50;2.05;;;1.42;;
10313;SDS011;5202;49.138;10.090;2023-09-19T02:30:22;2.28;;;1.30;;
10313;SDS011;5202;49.138;10.090;2023-09-19T02:32:51;1.80;;;1.13;;
10313;SDS011;5202;49.138;10.090;2023-09-19T02:35:22;2.75;;;1.30;;
10313;SDS011;5202;49.138;10.090;2023-09-19T02:37:52;1.40;;;1.17;;
10313;SDS011;5202;49.138;10.090;2023-09-19T02:40:21;2.70;;;1.23;;
10313;SDS011;5202;49.138;10.090;2023-09-19T02:42:53;1.58;;;1.17;;
10313;SDS011;5202;49.138;10.090;2023-09-19T02:45:25;2.30;;;1.30;;
10313;SDS011;5202;49.138;10.090;2023-09-19T02:47:55;2.38;;;1.38;;
10313;SDS011;5202;49.138;10.090;2023-09-19T02:50:23;3.03;;;1.20;;
10313;SDS011;5202;49.138;10.090;2023-09-19T02:52:52;1.20;;;1.10;;
10313;SDS011;5202;49.138;10.090;2023-09-19T02:55:20;3.10;;;1.05;;
10313;SDS011;5202;49.138;10.090;2023-09-19T02:57:49;2.28;;;1.30;;
10313;SDS011;5202;49.138;10.090;2023-09-19T03:00:21;2.35;;;1.20;;
10313;SDS011;5202;49.138;10.090;2023-09-19T03:02:52;2.85;;;1.33;;
10313;SDS011;5202;49.138;10.090;2023-09-19T03:05:24;2.15;;;1.30;;
10313;SDS011;5202;49.138;10.090;2023-09-19T03:07:53;4.28;;;1.70;;
10313;SDS011;5202;49.138;10.090;2023-09-19T03:10:22;3.55;;;1.52;;
10313;SDS011;5202;49.138;10.090;2023-09-19T03:12:52;2.40;;;1.40;;
10313;SDS011;5202;49.138;10.090;2023-09-19T03:15:20;2.38;;;1.27;;
10313;SDS011;5202;49.138;10.090;2023-09-19T03:17:50;1.88;;;1.20;;
10313;SDS011;5202;49.138;10.090;2023-09-19T03:20:23;1.77;;;1.35;;
10313;SDS011;5202;49.138;10.090;2023-09-19T03:22:52;1.73;;;1.23;;
10313;SDS011;5202;49.138;10.090;2023-09-19T03:25:21;2.05;;;1.30;;
10313;SDS011;5202;49.138;10.090;2023-09-19T03:27:52;1.50;;;1.23;;
10313;SDS011;5202;49.138;10.090;2023-09-19T03:30:22;2.53;;;1.42;;
10313;SDS011;5202;49.138;10.090;2023-09-19T03:32:50;1.42;;;1.33;;
10313;SDS011;5202;49.138;10.090;2023-09-19T03:35:20;2.20;;;2.00;;
10313;SDS011;5202;49.138;10.090;2023-09-19T03:37:50;3.65;;;1.92;;
10313;SDS011;5202;49.138;10.090;2023-09-19T03:40:19;1.65;;;1.40;;
10313;SDS011;5202;49.138;10.090;2023-09-19T03:42:49;2.33;;;2.08;;
10313;SDS011;5202;49.138;10.090;2023-09-19T03:45:17;5.03;;;3.15;;
10313;SDS011;5202;49.138;10.090;2023-09-19T03:47:49;3.97;;;3.03;;
10313;SDS011;5202;49.138;10.090;2023-09-19T03:50:20;3.20;;;3.00;;
10313;SDS011;5202;49.138;10.090;2023-09-19T03:52:50;3.45;;;1.65;;
10313;SDS011;5202;49.138;10.090;2023-09-19T03:55:24;2.10;;;1.83;;
10313;SDS011;5202;49.138;10.090;2023-09-19T03:57:53;3.10;;;2.35;;
10313;SDS011;5202;49.138;10.090;2023-09-19T04:00:22;1.95;;;1.85;;
10313;SDS011;5202;49.138;10.090;2023-09-19T04:02:53;2.10;;;1.40;;
10313;SDS011;5202;49.138;10.090;2023-09-19T04:05:23;4.78;;;1.90;;
10313;SDS011;5202;49.138;10.090;2023-09-19T04:07:53;3.60;;;1.70;;
10313;SDS011;5202;49.138;10.090;2023-09-19T04:10:21;1.73;;;1.38;;
10313;SDS011;5202;49.138;10.090;2023-09-19T04:12:50;2.55;;;1.40;;
10313;SDS011;5202;49.138;10.090;2023-09-19T04:15:21;2.67;;;1.40;;
10313;SDS011;5202;49.138;10.090;2023-09-19T04:17:52;1.48;;;1.30;;
10313;SDS011;5202;49.138;10.090;2023-09-19T04:20:21;3.33;;;1.50;;
10313;SDS011;5202;49.138;10.090;2023-09-19T04:22:50;4.07;;;1.20;;
10313;SDS011;5202;49.138;10.090;2023-09-19T04:25:20;1.35;;;1.05;;
10313;SDS011;5202;49.138;10.090;2023-09-19T04:27:49;2.80;;;1.15;;
10313;SDS011;5202;49.138;10.090;2023-09-19T04:30:17;2.17;;;1.48;;
10313;SDS011;5202;49.138;10.090;2023-09-19T04:32:48;1.95;;;1.30;;
10313;SDS011;5202;49.138;10.090;2023-09-19T04:35:18;3.40;;;1.50;;
10313;SDS011;5202;49.138;10.090;2023-09-19T04:37:47;2.28;;;1.45;;
10313;SDS011;5202;49.138;10.090;2023-09-19T04:40:16;1.85;;;1.35;;
10313;SDS011;5202;49.138;10.090;2023-09-19T04:42:53;1.80;;;1.48;;
10313;SDS011;5202;49.138;10.090;2023-09-19T04:45:23;1.88;;;1.40;;
10313;SDS011;5202;49.138;10.090;2023-09-19T04:47:53;2.53;;;1.27;;
10313;SDS011;5202;49.138;10.090;2023-09-19T04:50:22;5.25;;;1.60;;
10313;SDS011;5202;49.138;10.090;2023-09-19T04:52:54;2.38;;;1.50;;
10313;SDS011;5202;49.138;10.090;2023-09-19T04:55:23;2.28;;;1.30;;
10313;SDS011;5202;49.138;10.090;2023-09-19T04:57:51;2.03;;;1.38;;
10313;SDS011;5202;49.138;10.090;2023-09-19T05:00:22;2.58;;;1.30;;
10313;SDS011;5202;49.138;10.090;2023-09-19T05:02:51;3.75;;;1.48;;
10313;SDS011;5202;49.138;10.090;2023-09-19T05:05:23;3.75;;;1.65;;
10313;SDS011;5202;49.138;10.090;2023-09-19T05:07:52;2.58;;;1.58;;
10313;SDS011;5202;49.138;10.090;2023-09-19T05:10:22;2.78;;;1.10;;
10313;SDS011;5202;49.138;10.090;2023-09-19T05:12:54;1.92;;;1.27;;
10313;SDS011;5202;49.138;10.090;2023-09-19T05:15:22;2.85;;;1.80;;
10313;SDS011;5202;49.138;10.090;2023-09-19T05:17:52;2.92;;;1.60;;
10313;SDS011;5202;49.138;10.090;2023-09-19T05:20:24;3.00;;;1.77;;
10313;SDS011;5202;49.138;10.090;2023-09-19T05:22:59;1.92;;;1.40;;
10313;SDS011;5202;49.138;10.090;2023-09-19T05:25:29;3.95;;;2.05;;
10313;SDS011;5202;49.138;10.090;2023-09-19T05:28:01;1.20;;;1.10;;
10313;SDS011;5202;49.138;10.090;2023-09-19T05:30:31;3.20;;;2.00;;
10313;SDS011;5202;49.138;10.090;2023-09-19T05:33:00;4.00;;;1.13;;
10313;SDS011;5202;49.138;10.090;2023-09-19T05:35:28;1.80;;;1.40;;
10313;SDS011;5202;49.138;10.090;2023-09-19T05:37:57;4.35;;;1.70;;
10313;SDS011;5202;49.138;10.090;2023-09-19T05:40:26;1.48;;;1.05;;
10313;SDS011;5202;49.138;10.090;2023-09-19T05:42:54;5.88;;;2.00;;
10313;SDS011;5202;49.138;10.090;2023-09-19T05:45:24;4.65;;;1.50;;
10313;SDS011;5202;49.138;10.090;2023-09-19T05:47:54;3.08;;;1.42;;
10313;SDS011;5202;49.138;10.090;2023-09-19T05:50:28;4.82;;;1.52;;
10313;SDS011;5202;49.138;10.090;2023-09-19T05:52:56;2.92;;;1.40;;
10313;SDS011;5202;49.138;10.090;2023-09-19T05:55:24;3.25;;;1.55;;
10313;SDS011;5202;49.138;10.090;2023-09-19T05:57:55;4.05;;;1.60;;
10313;SDS011;5202;49.138;10.090;2023-09-19T06:00:25;5.10;;;1.85;;
10313;SDS011;5202;49.138;10.090;2023-09-19T06:02:56;4.10;;;1.70;;
10313;SDS011;5202;49.138;10.090;2023-09-19T06:05:26;2.42;;;1.70;;
10313;SDS011;5202;49.138;10.090;2023-09-19T06:08:01;2.92;;;1.67;;
10313;SDS011;5202;49.138;10.090;2023-09-19T06:10:34;1.45;;;1.35;;
10313;SDS011;5202;49.138;10.090;2023-09-19T06:13:03;4.30;;;1.60;;
10313;SDS011;5202;49.138;10.090;2023-09-19T06:15:34;3.10;;;1.77;;
10313;SDS011;5202;49.138;10.090;2023-09-19T06:18:03;5.93;;;1.55;;
10313;SDS011;5202;49.138;10.090;2023-09-19T06:20:32;2.60;;;1.70;;
10313;SDS011;5202;49.138;10.090;2023-09-19T06:23:01;7.00;;;1.80;;
10313;SDS011;5202;49.138;10.090;2023-09-19T06:25:31;7.88;;;2.10;;
10313;SDS011;5202;49.138;10.090;2023-09-19T06:27:59;2.45;;;1.70;;
10313;SDS011;5202;49.138;10.090;2023-09-19T06:30:31;4.05;;;1.73;;
10313;SDS011;5202;49.138;10.090;2023-09-19T06:33:02;2.42;;;1.65;;
10313;SDS011;5202;49.138;10.090;2023-09-19T06:35:31;4.50;;;1.83;;
10313;SDS011;5202;49.138;10.090;2023-09-19T06:38:02;7.95;;;2.03;;
10313;SDS011;5202;49.138;10.090;2023-09-19T06:40:31;2.67;;;1.77;;
10313;SDS011;5202;49.138;10.090;2023-09-19T06:43:04;4.15;;;1.95;;
10313;SDS011;5202;49.138;10.090;2023-09-19T06:45:34;1.80;;;1.50;;
10313;SDS011;5202;49.138;10.090;2023-09-19T06:48:03;4.47;;;1.88;;
10313;SDS011;5202;49.138;10.090;2023-09-19T06:50:33;3.85;;;1.90;;
10313;SDS011;5202;49.138;10.090;2023-09-19T06:53:02;2.90;;;1.98;;
10313;SDS011;5202;49.138;10.090;2023-09-19T06:55:31;4.00;;;2.13;;
10313;SDS011;5202;49.138;10.090;2023-09-19T06:58:00;4.05;;;1.80;;
10313;SDS011;5202;49.138;10.090;2023-09-19T07:00:29;4.57;;;1.67;;
10313;SDS011;5202;49.138;10.090;2023-09-19T07:03:00;3.92;;;2.25;;
10313;SDS011;5202;49.138;10.090;2023-09-19T07:05:31;1.98;;;1.85;;
10313;SDS011;5202;49.138;10.090;2023-09-19T07:08:06;3.25;;;2.08;;
10313;SDS011;5202;49.138;10.090;2023-09-19T07:10:36;2.85;;;1.92;;
10313;SDS011;5202;49.138;10.090;2023-09-19T07:13:05;3.70;;;1.90;;
10313;SDS011;5202;49.138;10.090;2023-09-19T07:15:37;2.10;;;1.90;;
10313;SDS011;5202;49.138;10.090;2023-09-19T07:18:14;2.45;;;2.15;;
10313;SDS011;5202;49.138;10.090;2023-09-19T07:20:44;4.75;;;1.98;;
10313;SDS011;5202;49.138;10.090;2023-09-19T07:23:16;3.17;;;2.00;;
10313;SDS011;5202;49.138;10.090;2023-09-19T07:25:45;4.97;;;2.20;;
10313;SDS011;5202;49.138;10.090;2023-09-19T07:28:14;3.35;;;2.17;;
10313;SDS011;5202;49.138;10.090;2023-09-19T07:30:43;5.72;;;2.42;;
10313;SDS011;5202;49.138;10.090;2023-09-19T07:33:11;3.72;;;1.80;;
10313;SDS011;5202;49.138;10.090;2023-09-19T07:35:44;2.97;;;2.00;;
10313;SDS011;5202;49.138;10.090;2023-09-19T07:38:13;3.90;;;2.13;;
10313;SDS011;5202;49.138;10.090;2023-09-19T07:40:43;3.97;;;2.05;;
10313;SDS011;5202;49.138;10.090;2023-09-19T07:43:11;4.80;;;2.35;;
10313;SDS011;5202;49.138;10.090;2023-09-19T07:45:39;5.00;;;2.70;;
10313;SDS011;5202;49.138;10.090;2023-09-19T07:48:09;5.07;;;2.40;;
10313;SDS011;5202;49.138;10.090;2023-09-19T07:50:42;3.85;;;2.33;;
10313;SDS011;5202;49.138;10.090;2023-09-19T07:53:11;2.33;;;1.70;;
10313;SDS011;5202;49.138;10.090;2023-09-19T07:55:42;3.47;;;2.20;;
10313;SDS011;5202;49.138;10.090;2023-09-19T07:58:15;3.53;;;2.35;;
10313;SDS011;5202;49.138;10.090;2023-09-19T08:00:43;5.82;;;2.17;;
10313;SDS011;5202;49.138;10.090;2023-09-19T08:03:12;4.22;;;1.85;;
10313;SDS011;5202;49.138;10.090;2023-09-19T08:05:55;5.05;;;2.00;;
10313;SDS011;5202;49.138;10.090;2023-09-19T08:08:41;3.42;;;2.58;;
10313;SDS011;5202;49.138;10.090;2023-09-19T08:11:09;4.00;;;2.05;;
10313;SDS011;5202;49.138;10.090;2023-09-19T08:13:39;2.95;;;2.03;;
10313;SDS011;5202;49.138;10.090;2023-09-19T08:16:10;5.15;;;1.80;;
10313;SDS011;5202;49.138;10.090;2023-09-19T08:18:39;2.92;;;1.92;;
10313;SDS011;5202;49.138;10.090;2023-09-19T08:21:11;2.78;;;1.90;;
10313;SDS011;5202;49.138;10.090;2023-09-19T08:23:43;8.93;;;2.08;;
10313;SDS011;5202;49.138;10.090;2023-09-19T08:26:12;3.28;;;2.03;;
10313;SDS011;5202;49.138;10.090;2023-09-19T08:28:40;2.28;;;1.65;;
10313;SDS011;5202;49.138;10.090;2023-09-19T08:31:09;1.80;;;1.67;;
10313;SDS011;5202;49.138;10.090;2023-09-19T08:33:37;4.55;;;1.90;;
10313;SDS011;5202;49.138;10.090;2023-09-19T08:36:09;1.90;;;1.30;;
10313;SDS011;5202;49.138;10.090;2023-09-19T08:38:40;3.28;;;1.50;;
10313;SDS011;5202;49.138;10.090;2023-09-19T08:41:09;2.83;;;1.40;;
10313;SDS011;5202;49.138;10.090;2023-09-19T08:43:38;1.65;;;1.42;;
10313;SDS011;5202;49.138;10.090;2023-09-19T08:46:09;2.38;;;1.50;;
10313;SDS011;5202;49.138;10.090;2023-09-19T08:48:43;1.55;;;1.20;;
10313;SDS011;5202;49.138;10.090;2023-09-19T08:51:21;2.38;;;1.40;;
10313;SDS011;5202;49.138;10.090;2023-09-19T08:53:58;2.90;;;1.35;;
10313;SDS011;5202;49.138;10.090;2023-09-19T08:56:32;2.00;;;1.40;;
10313;SDS011;5202;49.138;10.090;2023-09-19T08:59:02;1.48;;;1.23;;
10313;SDS011;5202;49.138;10.090;2023-09-19T09:01:34;2.20;;;1.15;;
10313;SDS011;5202;49.138;10.090;2023-09-19T09:04:04;3.53;;;1.30;;
10313;SDS011;5202;49.138;10.090;2023-09-19T09:06:41;2.53;;;1.17;;
10313;SDS011;5202;49.138;10.090;2023-09-19T09:09:12;1.38;;;1.08;;
10313;SDS011;5202;49.138;10.090;2023-09-19T09:11:40;2.58;;;0.98;;
10313;SDS011;5202;49.138;10.090;2023-09-19T09:14:09;1.33;;;1.05;;
10313;SDS011;5202;49.138;10.090;2023-09-19T09:16:37;1.65;;;1.10;;
10313;SDS011;5202;49.138;10.090;2023-09-19T09:19:06;2.60;;;1.00;;
10313;SDS011;5202;49.138;10.090;2023-09-19T09:21:34;2.25;;;1.40;;
10313;SDS011;5202;49.138;10.090;2023-09-19T09:27:02;2.67;;;1.48;;
10313;SDS011;5202;49.138;10.090;2023-09-19T09:29:42;4.18;;;1.20;;
10313;SDS011;5202;49.138;10.090;2023-09-19T09:32:16;2.53;;;1.20;;
10313;SDS011;5202;49.138;10.090;2023-09-19T09:34:47;2.08;;;1.08;;
10313;SDS011;5202;49.138;10.090;2023-09-19T09:37:19;2.17;;;0.85;;
10313;SDS011;5202;49.138;10.090;2023-09-19T09:39:50;2.22;;;1.40;;
10313;SDS011;5202;49.138;10.090;2023-09-19T09:42:28;3.20;;;1.00;;
10313;SDS011;5202;49.138;10.090;2023-09-19T09:45:12;3.85;;;1.52;;
10313;SDS011;5202;49.138;10.090;2023-09-19T09:47:46;3.90;;;1.95;;
10313;SDS011;5202;49.138;10.090;2023-09-19T09:50:23;4.38;;;1.40;;
10313;SDS011;5202;49.138;10.090;2023-09-19T09:53:20;3.83;;;1.33;;
10313;SDS011;5202;49.138;10.090;2023-09-19T09:56:00;2.15;;;1.35;;
10313;SDS011;5202;49.138;10.090;2023-09-19T09:58:33;3.17;;;1.40;;
10313;SDS011;5202;49.138;10.090;2023-09-19T10:01:03;1.70;;;0.93;;
10313;SDS011;5202;49.138;10.090;2023-09-19T10:03:37;1.52;;;1.35;;
10313;SDS011;5202;49.138;10.090;2023-09-19T10:06:09;2.45;;;1.27;;
10313;SDS011;5202;49.138;10.090;2023-09-19T10:08:58;2.13;;;1.40;;
10313;SDS011;5202;49.138;10.090;2023-09-19T10:11:42;2.42;;;1.13;;
10313;SDS011;5202;49.138;10.090;2023-09-19T10:14:12;2.55;;;1.13;;
10313;SDS011;5202;49.138;10.090;2023-09-19T10:16:45;3.10;;;1.30;;
10313;SDS011;5202;49.138;10.090;2023-09-19T10:19:16;2.55;;;1.15;;
10313;SDS011;5202;49.138;10.090;2023-09-19T10:21:53;3.95;;;1.67;;
10313;SDS011;5202;49.138;10.090;2023-09-19T10:24:23;1.80;;;1.10;;
10313;SDS011;5202;49.138;10.090;2023-09-19T10:26:54;2.47;;;1.02;;
10313;SDS011;5202;49.138;10.090;2023-09-19T10:29:24;2.53;;;1.33;;
10313;SDS011;5202;49.138;10.090;2023-09-19T10:31:55;2.45;;;1.33;;
10313;SDS011;5202;49.138;10.090;2023-09-19T10:34:28;1.88;;;1.20;;
10313;SDS011;5202;49.138;10.090;2023-09-19T10:36:58;2.58;;;1.40;;
10313;SDS011;5202;49.138;10.090;2023-09-19T10:39:32;3.63;;;1.30;;
10313;SDS011;5202;49.138;10.090;2023-09-19T10:42:02;3.05;;;1.52;;
10313;SDS011;5202;49.138;10.090;2023-09-19T10:44:36;4.53;;;1.33;;
10313;SDS011;5202;49.138;10.090;2023-09-19T10:47:09;4.82;;;1.42;;
10313;SDS011;5202;49.138;10.090;2023-09-19T10:49:42;4.38;;;1.40;;
10313;SDS011;5202;49.138;10.090;2023-09-19T10:52:13;2.40;;;1.40;;
10313;SDS011;5202;49.138;10.090;2023-09-19T10:54:46;4.22;;;1.45;;
10313;SDS011;5202;49.138;10.090;2023-09-19T10:57:22;6.50;;;1.67;;
10313;SDS011;5202;49.138;10.090;2023-09-19T11:00:02;4.65;;;1.20;;
10313;SDS011;5202;49.138;10.090;2023-09-19T11:06:00;1.85;;;1.02;;
10313;SDS011;5202;49.138;10.090;2023-09-19T11:08:57;1.63;;;1.02;;
10313;SDS011;5202;49.138;10.090;2023-09-19T11:11:49;5.05;;;1.00;;
10313;SDS011;5202;49.138;10.090;2023-09-19T11:14:32;4.43;;;1.48;;
10313;SDS011;5202;49.138;10.090;2023-09-19T11:17:29;3.20;;;1.38;;
10313;SDS011;5202;49.138;10.090;2023-09-19T11:20:19;1.70;;;1.27;;
10313;SDS011;5202;49.138;10.090;2023-09-19T11:25:53;2.97;;;1.20;;
10313;SDS011;5202;49.138;10.090;2023-09-19T11:28:28;1.05;;;1.00;;
10313;SDS011;5202;49.138;10.090;2023-09-19T11:40:38;5.53;;;1.52;;
10313;SDS011;5202;49.138;10.090;2023-09-19T11:46:07;5.40;;;1.33;;
10313;SDS011;5202;49.138;10.090;2023-09-19T11:48:42;1.77;;;1.50;;
10313;SDS011;5202;49.138;10.090;2023-09-19T11:51:12;2.38;;;1.55;;
10313;SDS011;5202;49.138;10.090;2023-09-19T11:53:53;2.22;;;1.27;;
10313;SDS011;5202;49.138;10.090;2023-09-19T11:56:24;1.83;;;1.10;;
10313;SDS011;5202;49.138;10.090;2023-09-19T11:58:54;4.00;;;1.30;;
10313;SDS011;5202;49.138;10.090;2023-09-19T12:01:25;1.30;;;1.20;;
10313;SDS011;5202;49.138;10.090;2023-09-19T12:04:06;2.10;;;1.20;;
10313;SDS011;5202;49.138;10.090;2023-09-19T12:06:45;2.30;;;1.30;;
10313;SDS011;5202;49.138;10.090;2023-09-19T12:09:24;2.13;;;1.33;;
10313;SDS011;5202;49.138;10.090;2023-09-19T12:11:53;6.25;;;1.40;;
10313;SDS011;5202;49.138;10.090;2023-09-19T12:14:22;3.00;;;1.40;;
10313;SDS011;5202;49.138;10.090;2023-09-19T12:16:53;1.10;;;0.98;;
10313;SDS011;5202;49.138;10.090;2023-09-19T12:19:24;2.95;;;1.42;;
10313;SDS011;5202;49.138;10.090;2023-09-19T12:21:54;1.48;;;1.02;;
10313;SDS011;5202;49.138;10.090;2023-09-19T12:24:26;2.17;;;1.23;;
10313;SDS011;5202;49.138;10.090;2023-09-19T12:27:00;2.13;;;1.17;;
10313;SDS011;5202;49.138;10.090;2023-09-19T12:29:32;2.65;;;1.55;;
10313;SDS011;5202;49.138;10.090;2023-09-19T12:32:11;1.92;;;1.30;;
10313;SDS011;5202;49.138;10.090;2023-09-19T12:34:49;3.63;;;1.52;;
10313;SDS011;5202;49.138;10.090;2023-09-19T12:37:20;4.95;;;1.40;;
10313;SDS011;5202;49.138;10.090;2023-09-19T12:39:49;2.45;;;1.52;;
10313;SDS011;5202;49.138;10.090;2023-09-19T12:42:22;4.00;;;1.63;;
10313;SDS011;5202;49.138;10.090;2023-09-19T12:44:55;4.70;;;1.45;;
10313;SDS011;5202;49.138;10.090;2023-09-19T12:47:27;4.25;;;1.55;;
10313;SDS011;5202;49.138;10.090;2023-09-19T12:50:08;2.35;;;1.40;;
10313;SDS011;5202;49.138;10.090;2023-09-19T12:52:44;1.88;;;1.33;;
10313;SDS011;5202;49.138;10.090;2023-09-19T12:55:20;3.85;;;1.40;;
10313;SDS011;5202;49.138;10.090;2023-09-19T12:58:00;1.70;;;1.40;;
10313;SDS011;5202;49.138;10.090;2023-09-19T13:00:36;4.50;;;1.45;;
10313;SDS011;5202;49.138;10.090;2023-09-19T13:03:11;2.45;;;1.33;;
10313;SDS011;5202;49.138;10.090;2023-09-19T13:05:50;2.20;;;1.30;;
10313;SDS011;5202;49.138;10.090;2023-09-19T13:08:24;1.92;;;1.25;;
10313;SDS011;5202;49.138;10.090;2023-09-19T13:10:59;4.05;;;1.60;;
10313;SDS011;5202;49.138;10.090;2023-09-19T13:13:37;3.92;;;1.30;;
10313;SDS011;5202;49.138;10.090;2023-09-19T13:16:08;4.78;;;1.35;;
10313;SDS011;5202;49.138;10.090;2023-09-19T13:18:44;2.78;;;1.17;;
10313;SDS011;5202;49.138;10.090;2023-09-19T13:21:27;2.35;;;1.45;;
10313;SDS011;5202;49.138;10.090;2023-09-19T13:24:19;3.28;;;1.30;;
10313;SDS011;5202;49.138;10.090;2023-09-19T13:26:49;2.78;;;1.10;;
10313;SDS011;5202;49.138;10.090;2023-09-19T13:29:18;2.67;;;1.20;;
10313;SDS011;5202;49.138;10.090;2023-09-19T13:31:46;2.55;;;1.15;;
10313;SDS011;5202;49.138;10.090;2023-09-19T13:34:15;3.65;;;1.20;;
10313;SDS011;5202;49.138;10.090;2023-09-19T13:36:46;2.40;;;1.30;;
10313;SDS011;5202;49.138;10.090;2023-09-19T13:39:15;2.03;;;1.20;;
10313;SDS011;5202;49.138;10.090;2023-09-19T13:41:44;2.10;;;1.35;;
10313;SDS011;5202;49.138;10.090;2023-09-19T13:44:14;1.77;;;1.25;;
10313;SDS011;5202;49.138;10.090;2023-09-19T13:46:43;2.25;;;1.38;;
10313;SDS011;5202;49.138;10.090;2023-09-19T13:49:13;2.70;;;1.10;;
10313;SDS011;5202;49.138;10.090;2023-09-19T13:51:48;1.98;;;1.25;;
10313;SDS011;5202;49.138;10.090;2023-09-19T13:54:16;4.70;;;1.38;;
10313;SDS011;5202;49.138;10.090;2023-09-19T13:56:45;2.95;;;1.40;;
10313;SDS011;5202;49.138;10.090;2023-09-19T13:59:13;2.25;;;1.33;;
10313;SDS011;5202;49.138;10.090;2023-09-19T14:01:42;3.38;;;1.30;;
10313;SDS011;5202;49.138;10.090;2023-09-19T14:04:18;1.65;;;1.15;;
10313;SDS011;5202;49.138;10.090;2023-09-19T14:06:58;3.30;;;1.17;;
10313;SDS011;5202;49.138;10.090;2023-09-19T14:09:27;1.23;;;1.13;;
10313;SDS011;5202;49.138;10.090;2023-09-19T14:11:55;1.50;;;1.15;;
10313;SDS011;5202;49.138;10.090;2023-09-19T14:14:24;1.65;;;1.17;;
10313;SDS011;5202;49.138;10.090;2023-09-19T14:16:52;1.30;;;1.10;;
10313;SDS011;5202;49.138;10.090;2023-09-19T14:19:21;3.85;;;1.30;;
10313;SDS011;5202;49.138;10.090;2023-09-19T14:21:50;2.30;;;1.13;;
10313;SDS011;5202;49.138;10.090;2023-09-19T14:24:23;3.63;;;1.30;;
10313;SDS011;5202;49.138;10.090;2023-09-19T14:26:51;3.70;;;1.33;;
10313;SDS011;5202;49.138;10.090;2023-09-19T14:29:19;1.33;;;1.23;;
10313;SDS011;5202;49.138;10.090;2023-09-19T14:31:48;3.47;;;1.42;;
10313;SDS011;5202;49.138;10.090;2023-09-19T14:34:18;1.83;;;1.35;;
10313;SDS011;5202;49.138;10.090;2023-09-19T14:36:47;3.25;;;1.17;;
10313;SDS011;5202;49.138;10.090;2023-09-19T14:39:15;5.68;;;1.20;;
10313;SDS011;5202;49.138;10.090;2023-09-19T14:41:47;1.92;;;1.00;;
10313;SDS011;5202;49.138;10.090;2023-09-19T14:44:16;2.80;;;1.50;;
10313;SDS011;5202;49.138;10.090;2023-09-19T14:46:45;4.75;;;1.20;;
10313;SDS011;5202;49.138;10.090;2023-09-19T14:49:13;2.10;;;1.20;;
10313;SDS011;5202;49.138;10.090;2023-09-19T14:51:43;2.40;;;1.20;;
10313;SDS011;5202;49.138;10.090;2023-09-19T14:54:14;2.67;;;1.30;;
10313;SDS011;5202;49.138;10.090;2023-09-19T14:56:43;2.33;;;1.30;;
10313;SDS011;5202;49.138;10.090;2023-09-19T14:59:13;1.92;;;1.45;;
10313;SDS011;5202;49.138;10.090;2023-09-19T15:01:42;2.30;;;1.40;;
10313;SDS011;5202;49.138;10.090;2023-09-19T15:04:11;2.10;;;1.25;;
10313;SDS011;5202;49.138;10.090;2023-09-19T15:06:40;1.58;;;1.13;;
10313;SDS011;5202;49.138;10.090;2023-09-19T15:09:08;4.78;;;1.40;;
10313;SDS011;5202;49.138;10.090;2023-09-19T15:11:38;2.10;;;1.15;;
10313;SDS011;5202;49.138;10.090;2023-09-19T15:14:06;1.48;;;1.10;;
10313;SDS011;5202;49.138;10.090;2023-09-19T15:16:36;2.75;;;1.38;;
10313;SDS011;5202;49.138;10.090;2023-09-19T15:19:05;1.65;;;1.17;;
10313;SDS011;5202;49.138;10.090;2023-09-19T15:21:34;2.60;;;1.20;;
10313;SDS011;5202;49.138;10.090;2023-09-19T15:24:04;2.22;;;1.33;;
10313;SDS011;5202;49.138;10.090;2023-09-19T15:26:36;1.45;;;1.20;;
10313;SDS011;5202;49.138;10.090;2023-09-19T15:29:06;2.25;;;1.25;;
10313;SDS011;5202;49.138;10.090;2023-09-19T15:31:37;3.03;;;1.15;;
10313;SDS011;5202;49.138;10.090;2023-09-19T15:34:05;3.75;;;1.45;;
10313;SDS011;5202;49.138;10.090;2023-09-19T15:36:34;1.70;;;1.30;;
10313;SDS011;5202;49.138;10.090;2023-09-19T15:39:04;1.83;;;1.10;;
10313;SDS011;5202;49.138;10.090;2023-09-19T15:41:34;1.27;;;1.10;;
10313;SDS011;5202;49.138;10.090;2023-09-19T15:44:10;2.22;;;1.15;;